createdAt,value
2023-01-21T00:01:56.522Z,8.60
2023-01-21T00:04:29.630Z,7.80
2023-01-21T00:06:58.411Z,7.80
2023-01-21T00:09:28.203Z,9.33
2023-01-21T00:11:57.207Z,10.67
2023-01-21T00:14:25.970Z,21.90
2023-01-21T00:17:12.319Z,9.73
2023-01-21T00:22:31.339Z,11.53
2023-01-21T00:25:00.250Z,9.53
2023-01-21T00:27:28.973Z,8.30
2023-01-21T00:30:33.777Z,7.43
2023-01-21T00:33:19.786Z,7.60
2023-01-21T00:35:59.229Z,6.80
2023-01-21T00:38:27.980Z,8.40
2023-01-21T00:41:01.632Z,6.40
2023-01-21T00:43:50.156Z,5.87
2023-01-21T00:46:37.288Z,6.00
2023-01-21T00:49:06.228Z,6.03
2023-01-21T00:51:36.543Z,5.97
2023-01-21T00:54:05.508Z,4.97
2023-01-21T00:56:34.259Z,5.07
2023-01-21T00:59:21.751Z,5.00
2023-01-21T01:02:09.356Z,4.40
2023-01-21T01:04:55.571Z,4.30
2023-01-21T01:08:01.922Z,4.17
2023-01-21T01:10:49.538Z,4.00
2023-01-21T01:13:18.450Z,3.93
2023-01-21T01:16:07.406Z,5.20
2023-01-21T01:18:37.467Z,4.70
2023-01-21T01:21:07.467Z,6.50
2023-01-21T01:23:39.695Z,5.93
2023-01-21T01:26:14.865Z,4.77
2023-01-21T01:28:44.270Z,3.90
2023-01-21T01:31:48.699Z,4.10
2023-01-21T01:34:17.431Z,3.67
2023-01-21T01:36:46.135Z,3.50
2023-01-21T01:39:53.434Z,3.80
2023-01-21T01:42:41.487Z,3.50
2023-01-21T01:45:22.400Z,3.50
2023-01-21T01:48:13.518Z,3.47
2023-01-21T01:50:45.148Z,3.50
2023-01-21T01:53:15.274Z,3.30
2023-01-21T01:55:46.924Z,3.40
2023-01-21T01:58:17.053Z,3.57
2023-01-21T02:00:46.175Z,4.03
2023-01-21T02:06:40.869Z,3.90
2023-01-21T02:09:09.610Z,3.40
2023-01-21T02:11:39.877Z,3.60
2023-01-21T02:14:09.560Z,3.40
2023-01-21T02:17:07.661Z,3.67
2023-01-21T02:20:36.625Z,3.57
2023-01-21T02:23:13.998Z,3.50
2023-01-21T02:26:34.755Z,3.37
2023-01-21T02:29:49.869Z,3.40
2023-01-21T02:33:38.801Z,3.53
2023-01-21T02:36:28.364Z,3.10
2023-01-21T02:39:25.320Z,4.03
2023-01-21T02:42:14.079Z,3.23
2023-01-21T02:44:50.652Z,3.43
2023-01-21T02:47:26.909Z,3.43
2023-01-21T02:50:17.419Z,3.40
2023-01-21T02:53:03.766Z,3.20
2023-01-21T02:58:25.300Z,3.23
2023-01-21T03:01:08.051Z,3.47
2023-01-21T03:04:25.615Z,3.27
2023-01-21T03:07:03.511Z,3.33
2023-01-21T03:10:14.245Z,3.30
2023-01-21T03:13:06.704Z,3.20
2023-01-21T03:15:56.633Z,3.20
2023-01-21T03:18:48.630Z,3.50
2023-01-21T03:21:22.171Z,3.10
2023-01-21T03:23:56.250Z,2.90
2023-01-21T03:26:31.402Z,2.83
2023-01-21T03:29:06.613Z,3.33
2023-01-21T03:31:38.828Z,3.10
2023-01-21T03:34:31.095Z,3.10
2023-01-21T03:37:22.690Z,2.90
2023-01-21T03:40:16.369Z,3.10
2023-01-21T03:43:04.292Z,3.20
2023-01-21T03:45:58.566Z,2.80
2023-01-21T03:48:34.247Z,2.87
2023-01-21T03:51:09.015Z,2.70
2023-01-21T03:53:56.226Z,3.20
2023-01-21T03:56:45.251Z,3.33
2023-01-21T04:05:58.011Z,2.90
2023-01-21T04:08:26.811Z,2.80
2023-01-21T04:10:55.499Z,2.77
2023-01-21T04:16:12.065Z,2.97
2023-01-21T04:18:40.952Z,2.97
2023-01-21T04:21:27.851Z,2.70
2023-01-21T04:24:14.265Z,3.20
2023-01-21T04:26:43.057Z,3.03
2023-01-21T04:29:13.233Z,3.00
2023-01-21T04:32:19.450Z,3.23
2023-01-21T04:35:06.882Z,3.37
2023-01-21T04:37:35.640Z,2.80
2023-01-21T04:40:04.552Z,3.23
2023-01-21T04:42:34.389Z,3.50
2023-01-21T04:45:23.354Z,4.93
2023-01-21T04:47:52.151Z,4.57
2023-01-21T04:50:39.301Z,4.63
2023-01-21T04:56:31.454Z,4.67
2023-01-21T04:59:00.407Z,6.00
2023-01-21T05:01:30.915Z,4.97
2023-01-21T05:03:59.839Z,6.30
2023-01-21T05:06:46.875Z,9.70
2023-01-21T05:09:15.724Z,8.67
2023-01-21T05:11:44.555Z,9.70
2023-01-21T05:14:13.293Z,7.63
2023-01-21T05:17:01.940Z,7.90
2023-01-21T05:19:30.734Z,6.00
2023-01-21T05:21:59.559Z,7.90
2023-01-21T05:24:30.377Z,7.37
2023-01-21T05:26:59.119Z,6.47
2023-01-21T05:29:45.162Z,5.73
2023-01-21T05:35:01.352Z,4.83
2023-01-21T05:37:47.583Z,4.77
2023-01-21T05:40:36.785Z,4.43
2023-01-21T05:43:25.883Z,4.70
2023-01-21T05:45:55.818Z,5.47
2023-01-21T05:48:26.370Z,4.93
2023-01-21T05:56:47.610Z,4.03
2023-01-21T05:59:16.324Z,4.60
2023-01-21T06:02:02.325Z,4.30
2023-01-21T06:04:50.846Z,4.80
2023-01-21T06:07:19.618Z,4.93
2023-01-21T06:09:48.351Z,5.27
2023-01-21T06:12:35.613Z,4.53
2023-01-21T06:15:22.751Z,5.73
2023-01-21T06:18:08.707Z,5.73
2023-01-21T06:20:57.504Z,10.20
2023-01-21T06:26:30.416Z,6.17
2023-01-21T06:28:59.411Z,5.90
2023-01-21T06:31:46.898Z,5.53
2023-01-21T06:34:52.859Z,5.40
2023-01-21T06:37:41.510Z,5.77
2023-01-21T06:40:12.172Z,6.57
2023-01-21T06:42:41.321Z,6.77
2023-01-21T06:45:31.252Z,8.30
2023-01-21T06:48:37.685Z,8.90
2023-01-21T06:51:26.108Z,8.97
2023-01-21T06:53:56.343Z,8.27
2023-01-21T06:56:44.310Z,7.87
2023-01-21T06:59:14.129Z,6.27
2023-01-21T07:01:45.587Z,7.33
2023-01-21T07:04:14.473Z,5.90
2023-01-21T07:07:18.951Z,5.10
2023-01-21T07:09:49.175Z,5.97
2023-01-21T07:12:55.226Z,11.13
2023-01-21T07:15:24.090Z,13.27
2023-01-21T07:20:42.775Z,7.40
2023-01-21T07:23:28.971Z,6.20
2023-01-21T07:26:38.338Z,22.53
2023-01-21T07:29:07.601Z,14.73
2023-01-21T07:34:59.471Z,8.60
2023-01-21T07:37:46.861Z,9.10
2023-01-21T07:43:03.433Z,9.07
2023-01-21T07:45:52.618Z,9.17
2023-01-21T07:48:39.834Z,9.17
2023-01-21T07:51:08.779Z,9.77
2023-01-21T07:53:37.627Z,8.57
2023-01-21T07:56:26.482Z,7.63
2023-01-21T07:58:57.241Z,7.67
2023-01-21T08:01:43.289Z,7.93
2023-01-21T08:04:30.593Z,8.47
2023-01-21T08:07:17.733Z,9.17
2023-01-21T08:10:05.801Z,9.47
2023-01-21T08:15:40.354Z,9.90
2023-01-21T08:18:09.072Z,12.43
2023-01-21T08:20:37.791Z,11.77
2023-01-21T08:23:06.540Z,11.10
2023-01-21T08:25:35.300Z,10.80
2023-01-21T08:28:04.117Z,11.40
2023-01-21T08:30:32.887Z,11.03
2023-01-21T08:33:05.503Z,11.53
2023-01-21T08:35:35.135Z,11.80
2023-01-21T08:38:22.471Z,11.33
2023-01-21T08:40:51.271Z,10.13
2023-01-21T08:43:20.066Z,10.87
2023-01-21T08:46:43.284Z,14.40
2023-01-21T08:52:36.513Z,13.67
2023-01-21T08:55:05.472Z,14.90
2023-01-21T08:57:36.488Z,17.27
2023-01-21T09:00:06.143Z,22.40
2023-01-21T09:02:53.838Z,22.80
2023-01-21T09:06:03.123Z,18.97
2023-01-21T09:08:31.852Z,14.20
2023-01-21T09:11:36.067Z,19.83
2023-01-21T09:14:04.962Z,36.33
2023-01-21T09:16:33.705Z,24.50
2023-01-21T09:19:21.080Z,16.23
2023-01-21T09:21:52.604Z,22.87
2023-01-21T09:24:39.631Z,20.20
2023-01-21T09:27:08.651Z,20.80
2023-01-21T09:29:37.388Z,21.23
2023-01-21T09:32:08.166Z,19.93
2023-01-21T09:34:54.510Z,19.97
2023-01-21T09:37:24.750Z,17.37
2023-01-21T09:42:42.841Z,12.83
2023-01-21T09:45:16.857Z,14.57
2023-01-21T09:47:47.802Z,14.73
2023-01-21T09:50:53.929Z,12.03
2023-01-21T09:53:33.859Z,17.80
2023-01-21T09:56:06.223Z,19.37
2023-01-21T09:58:41.552Z,11.80
2023-01-21T10:01:30.321Z,14.53
2023-01-21T10:04:34.369Z,9.37
2023-01-21T10:07:27.888Z,9.57
2023-01-21T10:10:10.799Z,8.97
2023-01-21T10:12:56.290Z,7.10
2023-01-21T10:15:48.827Z,7.00
2023-01-21T10:18:38.362Z,6.73
2023-01-21T10:21:12.354Z,6.83
2023-01-21T10:23:44.431Z,7.20
2023-01-21T10:26:34.123Z,7.90
2023-01-21T10:29:22.054Z,9.23
2023-01-21T10:32:15.111Z,8.30
2023-01-21T10:35:05.970Z,7.73
2023-01-21T10:37:39.119Z,8.10
2023-01-21T10:40:43.985Z,11.93
2023-01-21T10:43:25.468Z,9.00
2023-01-21T10:46:31.376Z,10.80
2023-01-21T10:52:17.351Z,6.60
2023-01-21T10:55:09.109Z,5.87
2023-01-21T10:57:55.169Z,6.53
2023-01-21T11:00:47.497Z,6.07
2023-01-21T11:03:25.360Z,6.97
2023-01-21T11:05:54.232Z,8.07
2023-01-21T11:08:25.191Z,10.03
2023-01-21T11:10:56.050Z,10.47
2023-01-21T11:13:42.635Z,6.80
2023-01-21T11:16:36.490Z,5.97
2023-01-21T11:19:24.610Z,5.77
2023-01-21T11:22:21.237Z,6.03
2023-01-21T11:27:58.172Z,5.57
2023-01-21T11:30:51.147Z,5.30
2023-01-21T11:33:44.890Z,5.57
2023-01-21T11:36:16.466Z,5.23
2023-01-21T11:39:04.529Z,4.70
2023-01-21T11:45:04.453Z,3.60
2023-01-21T11:47:39.220Z,4.20
2023-01-21T11:50:29.166Z,3.90
2023-01-21T11:53:17.554Z,4.20
2023-01-21T11:56:05.094Z,4.13
2023-01-21T11:58:38.991Z,5.27
2023-01-21T12:01:10.300Z,4.77
2023-01-21T12:03:44.580Z,5.20
2023-01-21T12:06:20.169Z,4.13
2023-01-21T12:08:52.150Z,4.50
2023-01-21T12:11:23.410Z,4.27
2023-01-21T12:14:05.410Z,4.20
2023-01-21T12:16:36.229Z,3.87
2023-01-21T12:19:23.099Z,4.30
2023-01-21T12:22:30.838Z,4.10
2023-01-21T12:25:21.023Z,4.80
2023-01-21T12:28:07.390Z,4.67
2023-01-21T12:34:35.408Z,5.10
2023-01-21T12:37:28.128Z,5.90
2023-01-21T12:40:01.084Z,4.87
2023-01-21T12:42:50.422Z,5.60
2023-01-21T12:45:39.481Z,5.80
2023-01-21T12:48:15.191Z,5.63
2023-01-21T12:53:55.323Z,6.60
2023-01-21T12:56:48.187Z,6.50
2023-01-21T12:59:25.153Z,6.20
2023-01-21T13:01:58.785Z,6.37
2023-01-21T13:04:44.118Z,6.30
2023-01-21T13:10:45.549Z,5.60
2023-01-21T13:13:37.633Z,5.60
2023-01-21T13:16:27.939Z,4.90
2023-01-21T13:18:56.867Z,8.10
2023-01-21T13:21:35.882Z,6.33
2023-01-21T13:24:17.033Z,16.40
2023-01-21T13:27:09.048Z,18.20
2023-01-21T13:29:45.710Z,15.00
2023-01-21T13:32:54.900Z,4.87
2023-01-21T13:35:33.199Z,6.43
2023-01-21T13:38:10.531Z,7.67
2023-01-21T13:41:16.319Z,7.57
2023-01-21T13:44:13.722Z,6.33
2023-01-21T13:47:09.117Z,5.77
2023-01-21T13:50:06.215Z,5.53
2023-01-21T13:56:01.753Z,5.50
2023-01-21T13:58:51.658Z,5.30
2023-01-21T14:01:42.713Z,5.50
2023-01-21T14:04:17.164Z,5.10
2023-01-21T14:06:56.241Z,5.70
2023-01-21T14:09:46.391Z,5.57
2023-01-21T14:12:19.430Z,5.07
2023-01-21T14:15:06.569Z,4.43
2023-01-21T14:18:03.464Z,5.70
2023-01-21T14:21:04.838Z,5.47
2023-01-21T14:24:05.268Z,6.13
2023-01-21T14:26:59.910Z,5.20
2023-01-21T14:29:51.286Z,5.00
2023-01-21T14:32:28.161Z,5.90
2023-01-21T14:35:07.960Z,5.97
2023-01-21T14:37:43.962Z,5.70
2023-01-21T14:40:38.349Z,6.10
2023-01-21T14:43:07.090Z,6.37
2023-01-21T14:45:55.557Z,6.00
2023-01-21T14:48:32.427Z,5.90
2023-01-21T14:51:14.483Z,5.87
2023-01-21T14:54:07.079Z,6.73
2023-01-21T14:56:53.763Z,5.93
2023-01-21T14:59:35.952Z,6.40
2023-01-21T15:02:19.676Z,6.57
2023-01-21T15:04:55.731Z,5.87
2023-01-21T15:07:26.979Z,6.40
2023-01-21T15:10:00.589Z,7.90
2023-01-21T15:12:32.440Z,9.57
2023-01-21T15:15:05.382Z,10.13
2023-01-21T15:17:48.030Z,8.57
2023-01-21T15:20:57.900Z,7.30
2023-01-21T15:23:56.672Z,10.07
2023-01-21T15:26:53.471Z,9.07
2023-01-21T15:29:33.669Z,8.73
2023-01-21T15:32:23.130Z,8.93
2023-01-21T15:34:54.462Z,11.23
2023-01-21T15:37:46.095Z,9.57
2023-01-21T15:40:20.249Z,9.80
2023-01-21T15:43:14.303Z,9.87
2023-01-21T15:45:51.055Z,10.67
2023-01-21T15:48:45.712Z,10.33
2023-01-21T15:51:25.644Z,14.93
2023-01-21T15:54:07.553Z,15.20
2023-01-21T15:59:54.449Z,11.87
2023-01-21T16:02:26.542Z,13.27
2023-01-21T16:05:21.553Z,12.17
2023-01-21T16:08:14.391Z,11.53
2023-01-21T16:11:07.288Z,11.77
2023-01-21T16:13:48.489Z,12.27
2023-01-21T16:16:50.188Z,11.60
2023-01-21T16:19:27.633Z,34.23
2023-01-21T16:21:59.992Z,35.40
2023-01-21T16:24:30.969Z,33.27
2023-01-21T16:27:18.790Z,21.30
2023-01-21T16:29:48.276Z,25.87
2023-01-21T16:32:22.223Z,20.83
2023-01-21T16:34:51.150Z,18.07
2023-01-21T16:37:56.705Z,18.43
2023-01-21T16:40:48.183Z,90.33
2023-01-21T16:43:43.694Z,38.37
2023-01-21T16:46:15.303Z,21.03
2023-01-21T16:49:24.090Z,22.83
2023-01-21T16:55:01.912Z,21.97
2023-01-21T17:01:03.931Z,30.13
2023-01-21T17:03:36.573Z,20.57
2023-01-21T17:06:12.039Z,19.77
2023-01-21T17:08:41.880Z,21.87
2023-01-21T17:14:00.138Z,25.53
2023-01-21T17:16:31.359Z,23.17
2023-01-21T17:19:04.779Z,21.03
2023-01-21T17:21:40.661Z,21.50
2023-01-21T17:24:19.070Z,27.13
2023-01-21T17:26:49.987Z,25.63
2023-01-21T17:29:36.973Z,22.53
2023-01-21T17:32:07.197Z,24.40
2023-01-21T17:34:40.030Z,24.30
2023-01-21T17:37:45.425Z,18.60
2023-01-21T17:40:30.079Z,23.80
2023-01-21T17:43:00.360Z,21.27
2023-01-21T17:45:32.686Z,17.47
2023-01-21T17:48:42.282Z,21.83
2023-01-21T17:51:16.695Z,20.83
2023-01-21T17:54:09.703Z,18.23
2023-01-21T17:57:17.797Z,19.20
2023-01-21T18:00:04.500Z,15.77
2023-01-21T18:02:33.472Z,16.67
2023-01-21T18:05:02.281Z,17.33
2023-01-21T18:07:35.271Z,20.43
2023-01-21T18:10:16.494Z,24.80
2023-01-21T18:12:45.287Z,22.70
2023-01-21T18:15:16.119Z,24.27
2023-01-21T18:17:47.232Z,22.60
2023-01-21T18:20:19.902Z,23.07
2023-01-21T18:23:07.269Z,22.00
2023-01-21T18:25:39.642Z,21.07
2023-01-21T18:28:09.252Z,20.77
2023-01-21T18:30:38.135Z,19.37
2023-01-21T18:33:06.941Z,18.93
2023-01-21T18:35:38.891Z,24.97
2023-01-21T18:38:45.839Z,21.93
2023-01-21T18:41:16.141Z,16.40
2023-01-21T18:44:03.212Z,16.13
2023-01-21T18:47:09.110Z,16.37
2023-01-21T18:49:37.914Z,15.73
2023-01-21T18:52:07.347Z,15.60
2023-01-21T18:54:36.331Z,16.07
2023-01-21T18:57:11.220Z,17.03
2023-01-21T19:00:00.246Z,17.53
2023-01-21T19:02:29.044Z,13.97
2023-01-21T19:05:17.267Z,13.00
2023-01-21T19:07:46.125Z,15.47
2023-01-21T19:10:17.922Z,16.80
2023-01-21T19:13:06.928Z,14.60
2023-01-21T19:15:35.791Z,14.80
2023-01-21T19:18:10.660Z,13.43
2023-01-21T19:20:41.745Z,11.83
2023-01-21T19:23:15.368Z,13.83
2023-01-21T19:26:03.971Z,12.50
2023-01-21T19:28:35.650Z,13.90
2023-01-21T19:31:04.629Z,12.03
2023-01-21T19:33:33.393Z,11.47
2023-01-21T19:36:06.100Z,11.20
2023-01-21T19:38:52.341Z,13.87
2023-01-21T19:41:23.881Z,15.23
2023-01-21T19:44:11.413Z,16.70
2023-01-21T19:50:04.411Z,16.37
2023-01-21T19:52:34.397Z,23.07
2023-01-21T19:58:13.303Z,22.37
2023-01-21T20:00:43.644Z,20.97
2023-01-21T20:03:13.800Z,21.73
2023-01-21T20:06:03.214Z,35.23
2023-01-21T20:09:14.748Z,34.53
2023-01-21T20:11:43.475Z,32.03
2023-01-21T20:14:12.670Z,34.90
2023-01-21T20:16:47.144Z,35.23
2023-01-21T20:19:17.738Z,29.10
2023-01-21T20:21:59.916Z,42.17
2023-01-21T20:24:48.299Z,30.37
2023-01-21T20:27:19.207Z,24.80
2023-01-21T20:29:55.878Z,25.47
2023-01-21T20:32:54.299Z,34.80
2023-01-21T20:35:24.800Z,38.17
2023-01-21T20:37:55.091Z,33.47
2023-01-21T20:40:27.644Z,28.93
2023-01-21T20:42:57.911Z,25.23
2023-01-21T20:45:33.231Z,23.60
2023-01-21T20:48:05.182Z,22.63
2023-01-21T20:50:53.280Z,23.17
2023-01-21T20:56:20.768Z,27.13
2023-01-21T20:59:07.541Z,27.13
2023-01-21T21:01:56.183Z,31.60
2023-01-21T21:04:43.991Z,31.23
2023-01-21T21:07:16.853Z,28.90
2023-01-21T21:09:45.690Z,31.73
2023-01-21T21:12:14.381Z,37.37
2023-01-21T21:15:02.588Z,35.13
2023-01-21T21:17:31.359Z,31.53
2023-01-21T21:25:38.513Z,24.23
2023-01-21T21:28:07.372Z,23.03
2023-01-21T21:30:36.310Z,22.40
2023-01-21T21:33:05.590Z,19.87
2023-01-21T21:35:37.158Z,18.97
2023-01-21T21:38:25.538Z,18.53
2023-01-21T21:41:16.327Z,19.23
2023-01-21T21:43:44.069Z,18.87
2023-01-21T21:46:31.873Z,21.90
2023-01-21T21:49:18.355Z,38.63
2023-01-21T21:51:48.624Z,30.23
2023-01-21T21:54:18.877Z,25.60
2023-01-21T21:56:49.378Z,25.50
2023-01-21T21:59:18.167Z,24.27
2023-01-21T22:01:46.953Z,23.70
2023-01-21T22:04:16.517Z,22.40
2023-01-21T22:07:05.158Z,22.73
2023-01-21T22:09:34.590Z,23.33
2023-01-21T22:15:06.700Z,23.57
2023-01-21T22:20:21.530Z,23.23
2023-01-21T22:22:51.688Z,21.70
2023-01-21T22:25:38.121Z,20.57
2023-01-21T22:28:06.893Z,20.20
2023-01-21T22:33:40.504Z,19.60
2023-01-21T22:36:47.123Z,20.33
2023-01-21T22:39:17.586Z,20.77
2023-01-21T22:42:05.284Z,19.63
2023-01-21T22:44:34.043Z,20.03
2023-01-21T22:47:22.643Z,19.77
2023-01-21T22:49:53.373Z,19.17
2023-01-21T22:52:22.130Z,20.80
2023-01-21T22:54:52.341Z,20.57
2023-01-21T22:57:38.805Z,20.23
2023-01-21T23:00:10.342Z,19.70
2023-01-21T23:03:15.295Z,19.60
2023-01-21T23:05:44.329Z,19.20
2023-01-21T23:08:13.110Z,20.67
2023-01-21T23:10:43.567Z,19.20
2023-01-21T23:13:12.978Z,19.80
2023-01-21T23:15:44.464Z,19.10
2023-01-21T23:18:14.573Z,20.90
2023-01-21T23:20:44.053Z,20.90
2023-01-21T23:23:13.701Z,19.40
2023-01-21T23:25:44.202Z,19.63
2023-01-21T23:28:31.530Z,18.87
2023-01-21T23:31:18.904Z,17.50
2023-01-21T23:33:51.161Z,16.93
2023-01-21T23:36:20.275Z,16.20
2023-01-21T23:38:49.010Z,15.63
2023-01-21T23:41:21.210Z,14.67
2023-01-21T23:43:49.990Z,15.40
2023-01-21T23:46:37.110Z,13.87
2023-01-21T23:49:23.204Z,14.83
2023-01-21T23:51:51.941Z,15.67
2023-01-21T23:54:20.640Z,16.40
2023-01-21T23:57:26.714Z,14.70
2023-01-21T23:59:55.449Z,14.33
